Latest Weather Observations for Daly Waters

IDD60801

Issued at 11:35 pm CST Thursday 24 April 2014 (issued every 30 minutes, with the page automatically refreshed every 10 minutes)

About weather observations | Map of weather stations | Latest weather observations for NT | Other Formats
Station Details ID: 014626 Name: DALY WATERS AIRSTRIP Lat: -16.26 Lon: 133.38 Height: 209.84 m
Data from the previous 72 hours. | See also: Recent months at Daly Waters
Date/Time
CST
Temp
°C
App
Temp
°C
Dew
Point
Rel
Hum
%
Delta-T
°C
Wind Press
QNH
hPa
Press
MSL
hPa
Rain
since 9 am
mm
Dir
 
Spd
km/h
Gust
km/h
Spd
kts
Gust
kts
24/11:30pm 22.4 25.3 19.0 81 2.2 SE 2 4 1 2 1010.3 1009.0 0.0
24/11:00pm 22.6 25.9 19.0 80 2.3 SSE 0 0 0 0 1010.4 - 0.0
24/10:30pm 22.7 25.8 18.7 78 2.5 CALM 0 0 0 0 1010.7 1009.4 0.0
24/10:00pm 22.9 26.0 18.7 77 2.7 CALM 0 0 0 0 1010.8 - 0.0
24/09:30pm 23.2 26.2 18.5 75 3.0 CALM 0 0 0 0 1010.8 1009.5 0.0
24/09:00pm 23.6 26.6 18.5 73 3.2 S 0 0 0 0 1010.5 1009.2 0.0
24/08:30pm 24.0 27.0 18.4 71 3.6 CALM 0 0 0 0 1010.2 1008.9 0.0
24/08:00pm 24.8 27.6 18.0 66 4.3 CALM 0 0 0 0 1009.8 - 0.0
24/07:30pm 25.9 28.0 17.3 59 5.4 SSE 2 4 1 2 1009.4 1008.1 0.0
24/07:00pm 27.5 29.1 16.8 52 6.7 SSE 4 6 2 3 1008.9 - 0.0
24/06:30pm 28.8 29.9 16.7 48 7.6 SSE 6 7 3 4 1008.5 1007.3 0.0
24/06:00pm 30.2 30.9 16.2 42 8.8 SE 7 11 4 6 1008.2 1006.9 0.0
24/05:30pm 31.3 31.8 16.5 41 9.4 SE 9 17 5 9 1007.9 1006.6 0.0
24/05:00pm 31.8 31.9 16.5 39 9.7 SE 11 20 6 11 1007.8 - 0.0
24/04:30pm 31.9 31.4 15.8 38 10.1 SSE 13 22 7 12 1007.6 1006.3 0.0
24/04:00pm 31.9 31.7 15.8 38 10.1 SSE 11 19 6 10 1007.6 - 0.0
24/03:30pm 32.6 32.7 15.6 36 10.7 SE 9 17 5 9 1007.6 1006.3 0.0
24/03:00pm 32.5 31.1 15.5 36 10.7 SE 17 28 9 15 1007.8 1006.5 0.0
24/02:30pm 33.1 31.9 16.0 35 10.8 ESE 17 26 9 14 1008.1 1006.8 0.0
24/02:00pm 33.2 31.7 15.2 33 11.3 ESE 17 28 9 15 1008.3 - 0.0
24/01:30pm 32.9 31.6 15.8 35 10.8 SE 17 32 9 17 1008.9 1007.6 0.0
24/01:00pm 32.1 29.4 14.7 35 10.8 SE 22 39 12 21 1009.2 - 0.0
24/12:30pm 32.4 32.3 17.8 41 9.5 SE 15 30 8 16 1009.8 1008.5 0.0
24/12:00pm 31.1 30.0 17.4 44 8.8 ESE 19 32 10 17 1010.6 1009.3 0.0
24/11:30am 30.4 31.2 18.2 48 7.9 SSE 11 20 6 11 1011.2 1009.9 0.0
24/11:00am 29.4 29.8 18.2 51 7.2 ESE 13 20 7 11 1011.9 - 0.0
24/10:30am 28.6 29.2 18.7 55 6.4 SE 13 20 7 11 1011.9 1010.6 0.0
24/10:00am 28.1 29.4 19.3 58 5.7 SE 11 20 6 11 1011.9 - 0.0
24/09:30am 27.3 28.7 19.6 62 5.0 SSE 11 19 6 10 1011.7 1010.4 0.0
24/09:00am 26.0 26.9 19.2 66 4.4 SE 13 20 7 11 1011.5 1010.2 0.0
24/08:30am 24.6 27.0 19.7 74 3.2 SE 6 11 3 6 1011.5 1010.2 0.0
24/08:00am 21.8 24.1 19.4 86 1.5 S 6 9 3 5 1011.0 - 0.0
24/07:30am 19.8 21.6 18.3 91 0.9 S 6 7 3 4 1010.8 1009.5 0.0
24/07:00am 18.8 20.5 17.1 90 1.0 S 4 4 2 2 1010.3 - 0.0
24/06:30am 18.8 20.4 16.9 89 1.2 SSE 4 6 2 3 1010.0 1008.7 0.0
24/06:00am 18.8 20.3 16.6 87 1.3 S 4 6 2 3 1009.7 1008.4 0.0
24/05:30am 19.0 21.3 16.8 87 1.3 CALM 0 0 0 0 1009.3 1008.0 0.0
24/05:00am 19.5 21.9 17.1 86 1.5 S 0 0 0 0 1009.3 - 0.0
24/04:30am 19.8 22.4 17.4 86 1.5 CALM 0 0 0 0 1009.4 1008.1 0.0
24/04:00am 20.2 22.5 17.6 85 1.6 SSE 2 4 1 2 1009.5 - 0.0
24/03:30am 20.3 22.1 17.5 84 1.7 SSE 4 6 2 3 1009.7 1008.4 0.0
24/03:00am 20.8 23.5 17.8 83 1.9 CALM 0 0 0 0 1009.8 1008.5 0.0
24/02:30am 21.0 23.1 18.0 83 1.9 S 4 6 2 3 1009.7 1008.4 0.0
24/02:00am 21.3 24.1 17.9 81 2.1 CALM 0 0 0 0 1010.3 - 0.0
24/01:30am 21.9 24.4 18.1 79 2.4 SSE 2 4 1 2 1010.7 1009.4 0.0
24/01:00am 22.4 24.5 18.0 76 2.8 SSE 4 4 2 2 1010.8 - 0.0
24/12:30am 23.9 25.9 18.8 73 3.3 ESE 6 9 3 5 1011.0 1009.7 0.0
24/12:00am 23.4 25.4 17.8 71 3.5 ESE 4 6 2 3 1011.2 1009.9 0.0
 
Date/Time
CST
Temp
°C
App
Temp
°C
Dew
Point
Rel
Hum
%
Delta-T
°C
Wind Press
QNH
hPa
Press
MSL
hPa
Rain
since 9 am
mm
Dir
 
Spd
km/h
Gust
km/h
Spd
kts
Gust
kts
23/11:30pm 24.0 26.1 18.0 69 3.8 SE 4 6 2 3 1011.4 1010.1 0.0
23/11:00pm 24.2 26.2 17.9 68 4.0 SE 4 6 2 3 1011.5 - 0.0
23/10:30pm 23.9 26.0 18.1 70 3.7 SE 4 6 2 3 1011.3 1010.0 0.0
23/10:00pm 23.8 26.3 18.2 71 3.5 SSE 2 4 1 2 1011.0 - 0.0
23/09:30pm 23.8 25.9 18.2 71 3.6 SSE 4 6 2 3 1011.0 1009.7 0.0
23/09:00pm 24.4 27.3 18.1 68 4.0 CALM 0 0 0 0 1010.8 1009.5 0.0
23/08:30pm 25.2 28.0 17.9 64 4.6 CALM 0 0 0 0 1010.4 1009.1 0.0
23/08:00pm 26.1 28.5 18.0 61 5.2 SE 2 4 1 2 1010.1 - 0.0
23/07:30pm 27.2 29.1 17.7 56 6.0 SSE 4 6 2 3 1009.6 1008.3 0.0
23/07:00pm 28.0 30.5 18.1 55 6.3 SSE 2 4 1 2 1009.2 - 0.0
23/06:30pm 29.6 31.3 17.1 47 8.0 SE 4 6 2 3 1008.9 1007.6 0.0
23/06:00pm 31.0 31.6 15.8 40 9.5 ESE 7 15 4 8 1008.5 1007.3 0.0
23/05:30pm 32.2 32.2 15.2 35 10.6 E 9 15 5 8 1008.3 1007.0 0.0
23/05:00pm 32.9 31.7 15.0 34 11.2 ESE 15 22 8 12 1008.2 - 0.0
23/04:30pm 33.4 32.8 14.5 32 11.7 SE 11 19 6 10 1008.0 1006.7 0.0
23/04:00pm 32.5 32.5 14.1 32 11.3 SSE 7 17 4 9 1008.1 - 0.0
23/03:30pm 32.7 31.7 13.4 31 11.8 SE 11 19 6 10 1008.3 1007.0 0.0
23/03:00pm 33.3 32.5 13.9 31 11.9 SE 11 20 6 11 1008.7 1007.4 0.0
23/02:30pm 34.2 33.2 14.7 31 12.2 ESE 13 24 7 13 1009.1 1007.8 0.0
23/02:00pm 33.1 31.4 14.7 33 11.4 SE 17 28 9 15 1009.5 - 0.0
23/01:30pm 33.5 32.7 15.0 32 11.6 ESE 13 24 7 13 1010.0 1008.7 0.0
23/01:00pm 33.7 33.3 16.1 34 11.2 SE 13 22 7 12 1010.4 - 0.0
23/12:30pm 32.6 33.2 17.6 40 9.7 SE 11 20 6 11 1011.0 1009.7 0.0
23/12:00pm 31.9 32.0 17.4 42 9.3 ESE 13 22 7 12 1011.4 1010.1 0.0
23/11:30am 31.2 32.0 18.2 46 8.4 SE 11 24 6 13 1011.9 1010.6 0.0
23/11:00am 30.0 31.8 18.8 51 7.3 ESE 7 19 4 10 1012.3 - 0.0
23/10:30am 29.3 31.2 19.0 53 6.7 SE 7 15 4 8 1012.7 1011.4 0.0
23/10:00am 28.4 30.6 19.6 59 5.8 SE 7 13 4 7 1013.0 - 0.0
23/09:30am 27.7 30.0 19.5 61 5.4 ESE 6 13 3 7 1012.8 1011.6 0.0
23/09:00am 26.8 29.0 19.2 63 4.9 E 6 11 3 6 1012.7 1011.4 0.0
23/08:30am 25.8 28.3 19.0 66 4.4 SE 4 6 2 3 1012.6 1011.3 0.0
23/08:00am 22.8 24.4 16.8 69 3.7 SSE 4 7 2 4 1012.3 - 0.0
23/07:30am 19.2 21.3 16.2 83 1.8 CALM 0 0 0 0 1012.0 1010.7 0.0
23/07:00am 18.0 19.8 15.6 86 1.4 CALM 0 0 0 0 1011.9 - 0.0
23/06:30am 18.0 19.8 15.4 85 1.5 CALM 0 0 0 0 1011.6 1010.3 0.0
23/06:00am 18.2 19.3 15.6 85 1.5 SSW 4 4 2 2 1011.3 1010.0 0.0
23/05:30am 18.4 20.3 15.8 85 1.6 CALM 0 0 0 0 1011.2 1009.9 0.0
23/05:00am 18.6 20.1 15.7 83 1.7 SSW 2 4 1 2 1011.1 - 0.0
23/04:30am 18.7 20.7 15.9 84 1.7 CALM 0 0 0 0 1011.0 1009.7 0.0
23/04:00am 18.9 20.9 16.1 84 1.7 CALM 0 0 0 0 1011.0 - 0.0
23/03:30am 19.0 20.6 15.9 82 1.9 E 2 4 1 2 1011.1 1009.8 0.0
23/03:00am 19.1 21.1 16.0 82 1.9 CALM 0 0 0 0 1011.1 1009.8 0.0
23/02:30am 19.3 20.9 16.0 81 2.0 S 2 4 1 2 1011.3 1010.0 0.0
23/02:00am 19.5 21.5 16.0 80 2.1 CALM 0 0 0 0 1011.5 - 0.0
23/01:30am 19.9 21.8 15.7 77 2.5 CALM 0 0 0 0 1011.6 1010.3 0.0
23/01:00am 20.4 22.2 15.4 73 3.0 CALM 0 0 0 0 1012.0 - 0.0
23/12:30am 21.6 22.8 15.0 66 3.9 E 2 4 1 2 1012.2 1010.9 0.0
23/12:00am 22.9 23.2 15.0 61 4.7 SSE 7 11 4 6 1012.0 1010.7 0.0
 
Date/Time
CST
Temp
°C
App
Temp
°C
Dew
Point
Rel
Hum
%
Delta-T
°C
Wind Press
QNH
hPa
Press
MSL
hPa
Rain
since 9 am
mm
Dir
 
Spd
km/h
Gust
km/h
Spd
kts
Gust
kts
22/11:30pm 22.6 23.2 15.2 63 4.5 S 6 7 3 4 1011.8 1010.5 0.0
22/11:00pm 21.9 22.8 16.0 69 3.6 S 6 9 3 5 1011.8 - 0.0
22/10:30pm 21.4 22.7 16.1 72 3.2 S 4 9 2 5 1011.8 1010.5 0.0
22/10:00pm 22.2 23.1 16.2 69 3.7 S 6 7 3 4 1011.8 - 0.0
22/09:30pm 22.2 23.8 16.9 72 3.3 S 4 6 2 3 1011.8 1010.5 0.0
22/09:00pm 22.6 24.1 16.6 69 3.7 S 4 6 2 3 1011.7 1010.4 0.0
22/08:30pm 23.1 24.5 16.4 66 4.1 SSE 4 6 2 3 1011.5 1010.2 0.0
22/08:00pm 23.6 25.0 16.4 64 4.4 S 4 6 2 3 1011.2 - 0.0
22/07:30pm 24.4 25.6 15.9 59 5.2 S 4 4 2 2 1011.0 1009.7 0.0
22/07:00pm 25.8 26.9 15.5 53 6.3 SSE 4 4 2 2 1010.7 - 0.0
22/06:30pm 28.8 29.0 13.1 38 9.4 SE 4 7 2 4 1010.4 1009.1 0.0
22/06:00pm 31.3 31.0 12.6 31 11.2 SE 6 9 3 5 1010.2 1008.9 0.0
22/05:30pm 32.7 31.9 12.9 30 12.0 SSE 9 17 5 9 1010.0 1008.7 0.0
22/05:00pm 33.1 32.2 12.7 29 12.3 SE 9 15 5 8 1009.9 - 0.0
22/04:30pm 32.6 32.7 13.8 32 11.5 SSE 6 11 3 6 1010.0 1008.7 0.0
22/04:00pm 33.8 32.2 12.7 27 12.8 ESE 13 20 7 11 1009.9 - 0.0
22/03:30pm 32.1 31.1 12.3 29 11.8 SE 9 15 5 8 1010.1 1008.8 0.0
22/03:00pm 33.2 32.5 13.3 30 12.1 SE 9 15 5 8 1010.3 1009.0 0.0
22/02:30pm 34.0 32.8 12.9 28 12.8 SSE 11 22 6 12 1010.6 1009.3 0.0
22/02:00pm 32.6 31.2 12.3 29 12.1 SSE 11 19 6 10 1011.2 - 0.0
22/01:30pm 33.7 33.2 13.7 30 12.3 SE 9 17 5 9 1011.3 1010.0 0.0
22/01:00pm 33.9 32.7 12.8 28 12.8 ESE 11 20 6 11 1011.9 - 0.0
22/12:30pm 32.9 32.1 13.0 30 12.0 ESE 9 22 5 12 1012.4 1011.1 0.0
22/12:00pm 33.3 32.2 14.4 32 11.7 ESE 13 20 7 11 1012.8 1011.6 0.0
22/11:30am 33.2 32.8 15.2 33 11.3 ESE 11 19 6 10 1013.6 1012.3 0.0
22/11:00am 32.4 32.5 15.4 36 10.6 E 9 17 5 9 1014.1 - 0.0
22/10:30am 31.0 30.5 15.0 38 9.9 E 11 19 6 10 1014.6 1013.3 0.0
22/10:00am 30.7 29.9 13.9 36 10.2 E 11 20 6 11 1014.7 - 0.0
22/09:30am 29.8 30.3 15.5 42 8.9 E 7 19 4 10 1014.6 1013.3 0.0
22/09:00am 27.7 28.7 16.9 51 6.8 E 7 13 4 7 1014.4 1013.1 0.0
22/08:30am 25.5 27.0 17.7 62 4.9 ESE 6 9 3 5 1014.2 1012.9 0.0
22/08:00am 23.1 25.5 17.1 69 3.7 CALM 0 7 0 4 1014.1 - 0.0
22/07:30am 19.7 20.8 15.6 77 2.5 SSE 4 6 2 3 1013.7 1012.4 0.0
22/07:00am 17.9 18.6 14.4 80 2.0 S 4 6 2 3 1013.3 - 0.0
22/06:30am 17.9 18.9 14.4 80 2.0 S 2 4 1 2 1013.3 1012.1 0.0
22/06:00am 18.3 19.3 14.4 78 2.3 SSE 2 4 1 2 1012.9 1011.7 0.0
22/05:30am 18.6 19.9 14.1 75 2.6 CALM 0 4 0 2 1012.8 1011.6 0.0
22/05:00am 19.0 19.4 13.8 72 3.0 S 4 4 2 2 1012.7 - 0.0
22/04:30am 19.2 20.9 15.3 78 2.3 CALM 0 0 0 0 1012.5 1011.2 0.0
22/04:00am 19.5 21.2 15.2 76 2.6 CALM 0 2 0 1 1012.4 - 0.0
22/03:30am 19.7 21.5 15.6 77 2.5 CALM 0 0 0 0 1012.5 1011.2 0.0
22/03:00am 19.9 21.5 14.9 73 3.0 CALM 0 0 0 0 1012.6 1011.3 0.0
22/02:30am 20.2 21.8 15.0 72 3.1 CALM 0 0 0 0 1012.6 1011.3 0.0
22/02:00am 20.6 22.4 15.6 73 3.0 CALM 0 0 0 0 1012.9 - 0.0
22/01:30am 21.1 22.5 14.3 65 4.0 CALM 0 0 0 0 1013.2 1012.0 0.0
22/01:00am 21.8 23.0 13.7 60 4.7 CALM 0 0 0 0 1013.7 - 0.0
22/12:30am 23.5 23.0 10.9 45 7.1 ESE 4 7 2 4 1013.7 1012.4 0.0
22/12:00am 23.9 22.9 10.9 44 7.3 ESE 7 9 4 5 1013.9 1012.6 0.0

Other Formats:

Comma delimited format used in spreadsheet applications
http://www.bom.gov.au/fwo/IDD60801/IDD60801.94234.axf

JavaScript Object Notation format (JSON) in row-major order
http://www.bom.gov.au/fwo/IDD60801/IDD60801.94234.json